createdAt,value
2023-05-18T04:02:07.774Z,8.50
2023-05-18T04:04:35.739Z,8.30
2023-05-18T04:07:05.991Z,8.30
2023-05-18T04:09:35.162Z,8.20
2023-05-18T04:12:03.957Z,8.20
2023-05-18T04:14:33.003Z,8.20
2023-05-18T04:17:04.805Z,8.20
2023-05-18T04:19:34.542Z,8.20
2023-05-18T04:22:04.795Z,8.20
2023-05-18T04:24:32.782Z,8.20
2023-05-18T04:27:01.106Z,8.20
2023-05-18T04:29:29.014Z,8.20
2023-05-18T04:31:59.949Z,8.30
2023-05-18T04:34:28.455Z,8.30
2023-05-18T04:36:58.517Z,8.30
2023-05-18T04:39:28.156Z,8.40
2023-05-18T04:41:58.235Z,8.40
2023-05-18T04:44:27.392Z,8.30
2023-05-18T04:46:55.943Z,8.30
2023-05-18T04:49:26.015Z,8.30
2023-05-18T04:51:56.710Z,8.30
2023-05-18T04:54:26.741Z,8.30
2023-05-18T04:56:54.883Z,8.30
2023-05-18T04:59:26.133Z,8.30
2023-05-18T05:01:54.640Z,8.30
2023-05-18T05:04:23.699Z,8.30
2023-05-18T05:06:51.510Z,8.30
2023-05-18T05:09:19.335Z,8.40
2023-05-18T05:11:48.984Z,8.40
2023-05-18T05:14:16.792Z,8.40
2023-05-18T05:16:44.772Z,8.30
2023-05-18T05:19:12.821Z,8.40
2023-05-18T05:21:41.529Z,8.30
2023-05-18T05:24:09.412Z,8.40
2023-05-18T05:26:37.204Z,8.40
2023-05-18T05:29:06.489Z,8.60
2023-05-18T05:31:34.691Z,8.50
2023-05-18T05:34:02.671Z,8.70
2023-05-18T05:36:31.791Z,8.70
2023-05-18T05:38:59.647Z,8.80
2023-05-18T05:41:27.629Z,8.90
2023-05-18T05:43:55.673Z,8.90
2023-05-18T05:46:25.952Z,9.00
2023-05-18T05:48:53.799Z,9.00
2023-05-18T05:51:21.680Z,9.10
2023-05-18T05:53:49.516Z,9.10
2023-05-18T05:56:17.386Z,9.10
2023-05-18T05:58:45.403Z,9.20
2023-05-18T06:01:13.269Z,9.30
2023-05-18T06:03:42.852Z,9.40
2023-05-18T06:06:11.270Z,9.40
2023-05-18T06:08:39.063Z,9.30
2023-05-18T06:11:08.203Z,9.30
2023-05-18T06:13:37.200Z,9.40
2023-05-18T06:16:05.169Z,9.40
2023-05-18T06:18:33.155Z,9.50
2023-05-18T06:21:02.445Z,9.50
2023-05-18T06:23:30.425Z,9.60
2023-05-18T06:25:58.247Z,9.60
2023-05-18T06:28:26.102Z,9.60
2023-05-18T06:30:53.909Z,9.70
2023-05-18T06:33:23.702Z,9.90
2023-05-18T06:35:51.926Z,9.90
2023-05-18T06:38:21.140Z,10.00
2023-05-18T06:40:48.950Z,10.00
2023-05-18T06:43:16.804Z,10.10
2023-05-18T06:45:44.702Z,10.10
2023-05-18T06:48:12.516Z,10.20
2023-05-18T06:50:40.361Z,10.30
2023-05-18T06:53:08.297Z,10.40
2023-05-18T06:55:37.782Z,10.40
2023-05-18T06:58:05.573Z,10.40
2023-05-18T07:00:33.434Z,10.40
2023-05-18T07:03:01.788Z,10.50
2023-05-18T07:05:30.300Z,10.50
2023-05-18T07:07:58.540Z,10.50
2023-05-18T07:10:26.587Z,10.70
2023-05-18T07:12:56.540Z,10.80
2023-05-18T07:15:25.996Z,10.80
2023-05-18T07:17:53.894Z,10.90
2023-05-18T07:20:22.666Z,11.00
2023-05-18T07:22:52.009Z,11.10
2023-05-18T07:25:19.738Z,11.10
2023-05-18T07:27:47.628Z,11.10
2023-05-18T07:30:16.813Z,11.10
2023-05-18T07:32:45.264Z,11.10
2023-05-18T07:35:13.629Z,11.20
2023-05-18T07:37:41.468Z,11.20
2023-05-18T07:40:10.592Z,11.40
2023-05-18T07:42:39.329Z,11.50
2023-05-18T07:45:08.392Z,11.50
2023-05-18T07:47:37.704Z,11.70
2023-05-18T07:50:06.485Z,11.70
2023-05-18T07:52:34.308Z,11.70
2023-05-18T07:55:02.355Z,11.70
2023-05-18T07:57:30.907Z,11.80
2023-05-18T07:59:58.824Z,11.80
2023-05-18T08:04:56.223Z,11.90
2023-05-18T08:07:26.468Z,11.90
2023-05-18T08:09:54.285Z,12.00
2023-05-18T08:12:23.167Z,12.00
2023-05-18T08:14:51.059Z,12.30
2023-05-18T08:17:19.583Z,12.30
2023-05-18T08:19:47.895Z,12.50
2023-05-18T08:22:17.121Z,12.60
2023-05-18T08:24:45.149Z,12.60
2023-05-18T08:27:12.999Z,12.70
2023-05-18T08:29:41.128Z,12.70
2023-05-18T08:32:09.192Z,12.70
2023-05-18T08:34:37.839Z,12.80
2023-05-18T08:37:06.131Z,12.80
2023-05-18T08:39:36.869Z,12.80
2023-05-18T08:42:08.931Z,12.80
2023-05-18T08:44:46.390Z,12.90
2023-05-18T08:47:16.605Z,13.00
2023-05-18T08:49:44.627Z,13.00
2023-05-18T08:52:18.788Z,13.10
2023-05-18T08:54:49.748Z,13.30
2023-05-18T08:57:18.718Z,13.30
2023-05-18T08:59:47.473Z,13.40
2023-05-18T09:02:15.730Z,13.40
2023-05-18T09:04:44.876Z,13.60
2023-05-18T09:07:13.414Z,13.60
2023-05-18T09:09:42.221Z,13.80
2023-05-18T09:12:13.121Z,13.80
2023-05-18T09:14:43.815Z,14.00
2023-05-18T09:17:12.937Z,14.10
2023-05-18T09:19:41.049Z,14.10
2023-05-18T09:22:08.913Z,14.20
2023-05-18T09:24:37.914Z,14.30
2023-05-18T09:27:06.709Z,14.40
2023-05-18T09:29:35.914Z,14.50
2023-05-18T09:32:05.287Z,14.50
2023-05-18T09:34:41.366Z,14.50
2023-05-18T09:37:10.480Z,14.60
2023-05-18T09:39:38.461Z,14.70
2023-05-18T09:42:06.930Z,14.80
2023-05-18T09:44:36.811Z,14.90
2023-05-18T09:47:09.369Z,15.00
2023-05-18T09:49:38.522Z,15.00
2023-05-18T09:52:09.365Z,14.90
2023-05-18T09:54:38.224Z,15.00
2023-05-18T09:57:10.877Z,15.20
2023-05-18T09:59:41.324Z,15.20
2023-05-18T10:02:13.018Z,15.20
2023-05-18T10:04:43.141Z,15.40
2023-05-18T10:07:12.876Z,15.40
2023-05-18T10:09:41.734Z,15.50
2023-05-18T10:12:13.865Z,15.40
2023-05-18T10:14:44.241Z,15.20
2023-05-18T10:17:15.724Z,15.40
2023-05-18T10:19:46.037Z,15.50
2023-05-18T10:22:17.641Z,15.70
2023-05-18T10:24:51.178Z,15.80
2023-05-18T10:27:20.970Z,15.90
2023-05-18T10:29:52.345Z,15.90
2023-05-18T10:32:21.721Z,16.00
2023-05-18T10:34:51.602Z,16.10
2023-05-18T10:37:23.207Z,16.10
2023-05-18T10:39:52.672Z,16.10
2023-05-18T10:42:20.807Z,16.30
2023-05-18T10:44:51.388Z,16.30
2023-05-18T10:47:20.451Z,16.50
2023-05-18T10:49:50.268Z,16.60
2023-05-18T10:52:18.904Z,16.70
2023-05-18T10:54:47.639Z,16.80
2023-05-18T10:57:18.731Z,16.80
2023-05-18T10:59:48.675Z,16.90
2023-05-18T11:02:21.783Z,16.80
2023-05-18T11:04:53.336Z,16.60
2023-05-18T11:07:22.540Z,16.50
2023-05-18T11:09:50.781Z,16.30
2023-05-18T11:12:18.680Z,16.30
2023-05-18T11:14:54.469Z,16.40
2023-05-18T11:17:25.366Z,16.50
2023-05-18T11:20:16.003Z,16.60
2023-05-18T11:22:47.020Z,16.70
2023-05-18T11:25:39.788Z,16.80
2023-05-18T11:28:09.711Z,12.80
2023-05-18T11:30:50.841Z,16.80
2023-05-18T11:33:25.046Z,17.00
2023-05-18T11:36:04.063Z,16.90
2023-05-18T11:38:49.479Z,17.00
2023-05-18T11:41:34.707Z,17.10
2023-05-18T11:44:16.340Z,17.10
2023-05-18T11:46:55.200Z,17.20
2023-05-18T11:49:25.994Z,17.20
2023-05-18T11:51:59.090Z,17.30
2023-05-18T11:54:27.381Z,17.40
2023-05-18T11:56:55.883Z,17.40
2023-05-18T11:59:34.647Z,17.40
2023-05-18T12:02:04.124Z,17.40
2023-05-18T12:04:34.644Z,17.30
2023-05-18T12:07:06.625Z,17.30
2023-05-18T12:09:35.124Z,17.30
2023-05-18T12:14:35.841Z,17.30
2023-05-18T12:17:04.107Z,17.30
2023-05-18T12:19:38.440Z,17.10
2023-05-18T12:22:09.945Z,17.10
2023-05-18T12:24:38.336Z,17.30
2023-05-18T12:27:08.591Z,17.40
2023-05-18T12:29:39.589Z,17.40
2023-05-18T12:32:09.469Z,17.50
2023-05-18T12:34:39.497Z,17.60
2023-05-18T12:37:07.759Z,17.80
2023-05-18T12:39:36.565Z,17.70
2023-05-18T12:42:12.239Z,17.50
2023-05-18T12:44:40.331Z,17.40
2023-05-18T12:47:08.228Z,17.50
2023-05-18T12:49:41.746Z,17.60
2023-05-18T12:52:12.293Z,17.70
2023-05-18T12:54:58.369Z,17.80
2023-05-18T12:57:27.163Z,17.90
2023-05-18T12:59:55.709Z,17.80
2023-05-18T13:02:34.806Z,17.90
2023-05-18T13:05:09.524Z,18.10
2023-05-18T13:07:39.695Z,18.30
2023-05-18T13:10:09.109Z,18.60
2023-05-18T13:12:41.303Z,18.90
2023-05-18T13:17:50.012Z,18.50
2023-05-18T13:22:47.694Z,18.00
2023-05-18T13:27:45.759Z,17.80
2023-05-18T13:30:15.308Z,17.90
2023-05-18T13:32:44.996Z,18.20
2023-05-18T13:35:13.537Z,18.20
2023-05-18T13:37:42.828Z,18.30
2023-05-18T13:40:11.411Z,18.50
2023-05-18T13:42:39.311Z,18.30
2023-05-18T13:45:08.368Z,18.20
2023-05-18T13:47:36.342Z,18.20
2023-05-18T13:50:04.496Z,18.20
2023-05-18T13:55:02.427Z,18.60
2023-05-18T13:57:31.962Z,18.80
2023-05-18T14:00:03.435Z,19.00
2023-05-18T14:07:28.450Z,19.30
2023-05-18T14:09:56.583Z,19.40
2023-05-18T14:12:25.734Z,19.40
2023-05-18T14:14:53.536Z,19.30
2023-05-18T14:17:21.687Z,19.10
2023-05-18T14:19:49.703Z,19.10
2023-05-18T14:22:18.810Z,19.10
2023-05-18T14:24:47.117Z,19.20
2023-05-18T14:27:14.896Z,19.40
2023-05-18T14:29:44.148Z,19.50
2023-05-18T14:32:11.986Z,19.70
2023-05-18T14:34:39.960Z,19.70
2023-05-18T14:37:07.831Z,19.60
2023-05-18T14:42:04.086Z,19.50
2023-05-18T14:44:31.997Z,19.50
2023-05-18T14:47:01.435Z,19.50
2023-05-18T14:49:29.286Z,19.60
2023-05-18T14:51:57.605Z,17.80
2023-05-18T14:54:25.731Z,19.70
2023-05-18T14:56:53.575Z,19.80
2023-05-18T14:59:22.149Z,19.80
2023-05-18T15:01:50.047Z,19.70
2023-05-18T15:04:21.697Z,19.80
2023-05-18T15:06:49.970Z,19.80
2023-05-18T15:09:17.971Z,19.90
2023-05-18T15:11:46.385Z,20.00
2023-05-18T15:14:14.200Z,20.10
2023-05-18T15:19:10.965Z,19.80
2023-05-18T15:21:40.389Z,19.90
2023-05-18T15:24:08.863Z,19.90
2023-05-18T15:26:36.953Z,20.10
2023-05-18T15:29:04.751Z,20.10
2023-05-18T15:34:01.597Z,20.30
2023-05-18T15:39:06.462Z,20.70
2023-05-18T15:41:35.229Z,20.70
2023-05-18T15:44:03.889Z,20.50
2023-05-18T15:46:35.030Z,20.20
2023-05-18T15:49:03.987Z,20.20
2023-05-18T15:51:32.211Z,20.30
2023-05-18T15:56:30.375Z,20.60
2023-05-18T16:01:26.519Z,20.50
2023-05-18T16:06:22.655Z,20.50
2023-05-18T16:08:51.105Z,20.30
2023-05-18T16:11:20.241Z,20.20
2023-05-18T16:13:50.103Z,20.00
2023-05-18T16:21:15.270Z,20.40
2023-05-18T16:26:13.033Z,20.90
2023-05-18T16:28:42.301Z,20.90
2023-05-18T16:31:11.902Z,21.00
2023-05-18T16:36:08.864Z,21.10
2023-05-18T16:38:37.550Z,20.90
2023-05-18T16:41:06.033Z,21.00
2023-05-18T16:51:00.097Z,20.70
2023-05-18T16:53:28.109Z,20.70
2023-05-18T17:03:23.159Z,21.40
2023-05-18T17:05:51.814Z,21.30
2023-05-18T17:08:19.705Z,21.50
2023-05-18T17:10:47.641Z,21.50
2023-05-18T17:13:15.474Z,21.70
2023-05-18T17:15:43.991Z,21.50
2023-05-18T17:18:11.848Z,21.60
2023-05-18T17:20:41.305Z,21.80
2023-05-18T17:23:12.371Z,21.90
2023-05-18T17:28:08.629Z,21.90
2023-05-18T17:33:05.476Z,21.70
2023-05-18T17:35:33.565Z,21.70
2023-05-18T17:38:02.930Z,21.80
2023-05-18T17:40:31.030Z,21.60
2023-05-18T17:42:59.201Z,21.20
2023-05-18T17:45:27.180Z,21.10
2023-05-18T17:47:55.133Z,21.10
2023-05-18T17:50:23.169Z,21.10
2023-05-18T17:52:51.496Z,21.20
2023-05-18T17:55:20.739Z,21.30
2023-05-18T17:57:48.654Z,21.30
2023-05-18T18:00:17.526Z,21.30
2023-05-18T18:02:45.427Z,21.30
2023-05-18T18:05:13.304Z,21.20
2023-05-18T18:07:41.216Z,21.00
2023-05-18T18:10:09.976Z,21.00
2023-05-18T18:12:39.225Z,20.90
2023-05-18T18:15:08.137Z,20.60
2023-05-18T18:17:36.432Z,20.50
2023-05-18T18:20:05.646Z,20.50
2023-05-18T18:22:35.092Z,20.50
2023-05-18T18:25:03.775Z,20.40
2023-05-18T18:27:31.645Z,20.10
2023-05-18T18:30:00.842Z,20.20
2023-05-18T18:32:28.821Z,20.00
2023-05-18T18:34:56.660Z,19.90
2023-05-18T18:37:24.621Z,19.40
2023-05-18T18:39:52.483Z,19.40
2023-05-18T18:42:21.568Z,19.10
2023-05-18T18:44:52.808Z,18.60
2023-05-18T18:47:22.157Z,18.10
2023-05-18T18:49:49.969Z,18.10
2023-05-18T18:52:17.921Z,18.00
2023-05-18T18:54:46.046Z,17.80
2023-05-18T18:57:14.021Z,17.50
2023-05-18T18:59:41.874Z,17.50
2023-05-18T19:02:09.971Z,17.50
2023-05-18T19:04:39.308Z,17.40
2023-05-18T19:07:07.193Z,17.00
2023-05-18T19:09:36.291Z,17.00
2023-05-18T19:12:05.001Z,16.70
2023-05-18T19:14:32.791Z,16.70
2023-05-18T19:17:00.580Z,16.60
2023-05-18T19:19:29.662Z,16.50
2023-05-18T19:21:58.934Z,16.40
2023-05-18T19:24:26.758Z,16.40
2023-05-18T19:26:54.578Z,16.30
2023-05-18T19:29:24.906Z,16.20
2023-05-18T19:31:54.869Z,16.10
2023-05-18T19:34:23.044Z,16.00
2023-05-18T19:36:51.525Z,16.00
2023-05-18T19:39:20.816Z,16.00
2023-05-18T19:44:17.085Z,15.90
2023-05-18T19:46:45.374Z,15.70
2023-05-18T19:49:13.225Z,15.70
2023-05-18T19:51:41.168Z,15.70
2023-05-18T19:54:09.116Z,15.60
2023-05-18T19:56:38.323Z,15.50
2023-05-18T19:59:06.219Z,15.50
2023-05-18T20:01:34.193Z,15.40
2023-05-18T20:04:02.557Z,15.30
2023-05-18T20:06:31.768Z,15.30
2023-05-18T20:11:28.615Z,15.30
2023-05-18T20:13:58.372Z,15.20
2023-05-18T20:16:29.024Z,15.20
2023-05-18T20:18:57.751Z,15.10
2023-05-18T20:21:25.658Z,15.10
2023-05-18T20:23:53.540Z,15.10
2023-05-18T20:26:22.625Z,15.10
2023-05-18T20:28:50.525Z,15.10
2023-05-18T20:31:19.911Z,15.10
2023-05-18T20:33:50.057Z,15.10
2023-05-18T20:36:18.096Z,15.00
2023-05-18T20:38:46.029Z,15.00
2023-05-18T20:41:13.885Z,14.90
2023-05-18T20:43:42.051Z,13.00
2023-05-18T20:46:13.429Z,14.90
2023-05-18T20:51:17.945Z,14.70
2023-05-18T20:53:47.475Z,14.70
2023-05-18T20:56:15.679Z,14.60
2023-05-18T20:58:49.731Z,14.60
2023-05-18T21:01:18.485Z,14.60
2023-05-18T21:03:48.811Z,14.60
2023-05-18T21:06:16.850Z,14.60
2023-05-18T21:08:45.349Z,14.60
2023-05-18T21:11:13.315Z,14.50
2023-05-18T21:16:09.668Z,14.40
2023-05-18T21:18:38.112Z,14.40
2023-05-18T21:21:07.369Z,14.40
2023-05-18T21:23:35.229Z,14.40
2023-05-18T21:26:03.148Z,14.30
2023-05-18T21:28:31.000Z,14.40
2023-05-18T21:30:58.875Z,14.30
2023-05-18T21:33:26.956Z,14.30
2023-05-18T21:35:55.827Z,14.30
2023-05-18T21:38:25.035Z,14.30
2023-05-18T21:40:52.995Z,14.40
2023-05-18T21:43:20.795Z,14.40
2023-05-18T21:45:48.829Z,14.40
2023-05-18T21:48:16.740Z,14.40
2023-05-18T21:50:44.555Z,14.30
2023-05-18T21:53:12.520Z,14.30
2023-05-18T21:55:41.789Z,14.20
2023-05-18T21:58:09.600Z,14.20
2023-05-18T22:00:38.259Z,14.10
2023-05-18T22:03:06.118Z,14.10
2023-05-18T22:05:33.968Z,14.10
2023-05-18T22:08:01.802Z,14.00
2023-05-18T22:10:31.100Z,14.00
2023-05-18T22:13:00.753Z,13.90
2023-05-18T22:15:28.830Z,13.80
2023-05-18T22:17:56.770Z,13.80
2023-05-18T22:20:24.686Z,13.80
2023-05-18T22:22:52.590Z,13.70
2023-05-18T22:25:20.459Z,13.70
2023-05-18T22:27:48.284Z,13.60
2023-05-18T22:30:17.877Z,14.20
2023-05-18T22:32:47.287Z,13.60
2023-05-18T22:35:15.518Z,13.60
2023-05-18T22:37:43.327Z,13.60
2023-05-18T22:40:11.990Z,13.60
2023-05-18T22:42:39.889Z,13.50
2023-05-18T22:45:08.911Z,13.50
2023-05-18T22:47:39.025Z,13.50
2023-05-18T22:50:08.110Z,13.50
2023-05-18T22:52:36.757Z,13.50
2023-05-18T22:55:05.428Z,13.40
2023-05-18T22:57:33.706Z,13.40
2023-05-18T23:00:01.499Z,13.40
2023-05-18T23:02:29.325Z,13.30
2023-05-18T23:04:58.509Z,13.30
2023-05-18T23:07:26.343Z,13.20
2023-05-18T23:09:54.300Z,13.20
2023-05-18T23:12:22.270Z,13.30
2023-05-18T23:14:54.680Z,13.30
2023-05-18T23:17:23.110Z,13.30
2023-05-18T23:19:53.890Z,13.30
2023-05-18T23:22:23.216Z,13.20
2023-05-18T23:24:51.016Z,13.20
2023-05-18T23:27:20.472Z,13.20
2023-05-18T23:29:48.271Z,13.10
2023-05-18T23:32:16.177Z,13.10
2023-05-18T23:34:45.619Z,13.00
2023-05-18T23:37:14.549Z,13.00
2023-05-18T23:39:46.642Z,12.90
2023-05-18T23:42:15.844Z,12.90
2023-05-18T23:44:44.352Z,12.90
2023-05-18T23:47:13.447Z,12.80
2023-05-18T23:49:42.012Z,12.90
2023-05-18T23:52:11.062Z,12.70
2023-05-18T23:54:39.454Z,12.80
2023-05-18T23:57:10.996Z,12.70
2023-05-18T23:59:39.479Z,12.70
